sensor_id;sensor_type;location;lat;lon;timestamp;pressure;altitude;pressure_sealevel;temperature;humidity
77027;BME280;65956;52.986;17.490;2023-08-24T00:00:42;100537.63;;;17.77;75.71
77027;BME280;65956;52.986;17.490;2023-08-24T00:03:28;100539.09;;;17.76;75.90
77027;BME280;65956;52.986;17.490;2023-08-24T00:05:54;100537.98;;;17.75;75.69
77027;BME280;65956;52.986;17.490;2023-08-24T00:08:20;100535.17;;;17.73;75.72
77027;BME280;65956;52.986;17.490;2023-08-24T00:10:46;100534.06;;;17.71;75.68
77027;BME280;65956;52.986;17.490;2023-08-24T00:13:13;100541.27;;;17.67;75.88
77027;BME280;65956;52.986;17.490;2023-08-24T00:15:39;100540.31;;;17.65;75.95
77027;BME280;65956;52.986;17.490;2023-08-24T00:18:06;100543.71;;;17.62;75.87
77027;BME280;65956;52.986;17.490;2023-08-24T00:20:33;100541.08;;;17.60;75.77
77027;BME280;65956;52.986;17.490;2023-08-24T00:22:59;100540.92;;;17.57;76.16
77027;BME280;65956;52.986;17.490;2023-08-24T00:25:25;100538.02;;;17.54;76.19
77027;BME280;65956;52.986;17.490;2023-08-24T00:27:54;100539.75;;;17.51;76.23
77027;BME280;65956;52.986;17.490;2023-08-24T00:30:21;100536.23;;;17.49;76.20
77027;BME280;65956;52.986;17.490;2023-08-24T00:32:47;100540.26;;;17.47;76.08
77027;BME280;65956;52.986;17.490;2023-08-24T00:35:13;100538.26;;;17.45;76.34
77027;BME280;65956;52.986;17.490;2023-08-24T00:37:39;100543.02;;;17.43;76.88
77027;BME280;65956;52.986;17.490;2023-08-24T00:40:06;100544.48;;;17.41;76.79
77027;BME280;65956;52.986;17.490;2023-08-24T00:42:39;100540.09;;;17.38;76.85
77027;BME280;65956;52.986;17.490;2023-08-24T00:45:08;100541.87;;;17.36;77.11
77027;BME280;65956;52.986;17.490;2023-08-24T00:47:37;100544.80;;;17.32;77.32
77027;BME280;65956;52.986;17.490;2023-08-24T00:50:04;100546.18;;;17.28;77.72
77027;BME280;65956;52.986;17.490;2023-08-24T00:52:32;100542.91;;;17.25;77.70
77027;BME280;65956;52.986;17.490;2023-08-24T00:54:59;100542.54;;;17.21;77.58
77027;BME280;65956;52.986;17.490;2023-08-24T00:57:27;100543.77;;;17.17;77.85
77027;BME280;65956;52.986;17.490;2023-08-24T00:59:54;100547.00;;;17.14;77.87
77027;BME280;65956;52.986;17.490;2023-08-24T01:02:20;100548.14;;;17.10;77.58
77027;BME280;65956;52.986;17.490;2023-08-24T01:04:47;100547.68;;;17.06;77.73
77027;BME280;65956;52.986;17.490;2023-08-24T01:07:14;100550.77;;;17.02;77.86
77027;BME280;65956;52.986;17.490;2023-08-24T01:09:41;100549.17;;;16.99;77.86
77027;BME280;65956;52.986;17.490;2023-08-24T01:12:19;100548.80;;;16.95;77.91
77027;BME280;65956;52.986;17.490;2023-08-24T01:17:29;100545.71;;;16.84;78.24
77027;BME280;65956;52.986;17.490;2023-08-24T01:19:57;100542.34;;;16.81;78.27
77027;BME280;65956;52.986;17.490;2023-08-24T01:25:12;100545.41;;;16.75;78.70
77027;BME280;65956;52.986;17.490;2023-08-24T01:27:39;100548.89;;;16.73;78.94
77027;BME280;65956;52.986;17.490;2023-08-24T01:30:06;100549.70;;;16.71;78.87
77027;BME280;65956;52.986;17.490;2023-08-24T01:32:34;100547.69;;;16.71;78.97
77027;BME280;65956;52.986;17.490;2023-08-24T01:35:07;100548.89;;;16.71;78.92
77027;BME280;65956;52.986;17.490;2023-08-24T01:37:34;100547.88;;;16.69;78.84
77027;BME280;65956;52.986;17.490;2023-08-24T01:42:49;100544.60;;;16.65;79.05
77027;BME280;65956;52.986;17.490;2023-08-24T01:45:17;100539.05;;;16.60;79.24
77027;BME280;65956;52.986;17.490;2023-08-24T01:47:46;100543.00;;;16.56;79.53
77027;BME280;65956;52.986;17.490;2023-08-24T01:50:13;100544.86;;;16.48;79.96
77027;BME280;65956;52.986;17.490;2023-08-24T01:52:40;100542.55;;;16.42;80.11
77027;BME280;65956;52.986;17.490;2023-08-24T01:55:07;100543.85;;;16.37;80.49
77027;BME280;65956;52.986;17.490;2023-08-24T01:57:34;100547.80;;;16.31;80.53
77027;BME280;65956;52.986;17.490;2023-08-24T02:00:00;100543.71;;;16.25;80.83
77027;BME280;65956;52.986;17.490;2023-08-24T02:02:25;100543.00;;;16.19;81.12
77027;BME280;65956;52.986;17.490;2023-08-24T02:04:51;100539.64;;;16.14;81.16
77027;BME280;65956;52.986;17.490;2023-08-24T02:07:17;100543.10;;;16.09;81.14
77027;BME280;65956;52.986;17.490;2023-08-24T02:09:43;100541.99;;;16.04;81.21
77027;BME280;65956;52.986;17.490;2023-08-24T02:12:09;100540.14;;;16.02;81.49
77027;BME280;65956;52.986;17.490;2023-08-24T02:14:36;100537.89;;;16.02;81.55
77027;BME280;65956;52.986;17.490;2023-08-24T02:17:02;100538.70;;;16.01;81.59
77027;BME280;65956;52.986;17.490;2023-08-24T02:19:30;100539.66;;;16.02;81.51
77027;BME280;65956;52.986;17.490;2023-08-24T02:21:55;100542.16;;;16.00;81.44
77027;BME280;65956;52.986;17.490;2023-08-24T02:24:22;100542.41;;;16.01;81.91
77027;BME280;65956;52.986;17.490;2023-08-24T02:26:48;100542.08;;;16.01;81.89
77027;BME280;65956;52.986;17.490;2023-08-24T02:29:14;100543.13;;;16.00;81.75
77027;BME280;65956;52.986;17.490;2023-08-24T02:31:40;100538.46;;;15.99;81.92
77027;BME280;65956;52.986;17.490;2023-08-24T02:34:06;100540.16;;;15.97;81.88
77027;BME280;65956;52.986;17.490;2023-08-24T02:36:33;100542.96;;;15.93;82.13
77027;BME280;65956;52.986;17.490;2023-08-24T02:38:59;100543.30;;;15.91;82.55
77027;BME280;65956;52.986;17.490;2023-08-24T02:41:26;100540.64;;;15.91;82.52
77027;BME280;65956;52.986;17.490;2023-08-24T02:43:53;100533.25;;;15.89;82.32
77027;BME280;65956;52.986;17.490;2023-08-24T02:46:20;100530.38;;;15.88;82.36
77027;BME280;65956;52.986;17.490;2023-08-24T02:48:47;100529.57;;;15.87;82.21
77027;BME280;65956;52.986;17.490;2023-08-24T02:51:13;100532.85;;;15.86;82.44
77027;BME280;65956;52.986;17.490;2023-08-24T02:53:40;100537.91;;;15.86;82.65
77027;BME280;65956;52.986;17.490;2023-08-24T02:56:06;100538.72;;;15.90;82.67
77027;BME280;65956;52.986;17.490;2023-08-24T02:58:32;100537.59;;;15.96;82.58
77027;BME280;65956;52.986;17.490;2023-08-24T03:00:58;100539.18;;;16.02;82.31
77027;BME280;65956;52.986;17.490;2023-08-24T03:03:24;100537.17;;;16.07;82.05
77027;BME280;65956;52.986;17.490;2023-08-24T03:05:59;100542.86;;;16.10;82.11
77027;BME280;65956;52.986;17.490;2023-08-24T03:08:27;100540.30;;;16.12;82.33
77027;BME280;65956;52.986;17.490;2023-08-24T03:10:55;100540.20;;;16.14;82.19
77027;BME280;65956;52.986;17.490;2023-08-24T03:13:22;100532.89;;;16.15;82.22
77027;BME280;65956;52.986;17.490;2023-08-24T03:15:48;100536.18;;;16.15;82.18
77027;BME280;65956;52.986;17.490;2023-08-24T03:18:16;100531.63;;;16.13;82.29
77027;BME280;65956;52.986;17.490;2023-08-24T03:20:44;100527.59;;;16.11;82.28
77027;BME280;65956;52.986;17.490;2023-08-24T03:23:10;100537.63;;;16.10;82.28
77027;BME280;65956;52.986;17.490;2023-08-24T03:25:38;100529.95;;;16.09;82.11
77027;BME280;65956;52.986;17.490;2023-08-24T03:28:05;100528.33;;;16.09;81.98
77027;BME280;65956;52.986;17.490;2023-08-24T03:30:32;100526.40;;;16.08;81.83
77027;BME280;65956;52.986;17.490;2023-08-24T03:32:58;100525.27;;;16.07;81.85
77027;BME280;65956;52.986;17.490;2023-08-24T03:35:25;100526.02;;;16.04;81.99
77027;BME280;65956;52.986;17.490;2023-08-24T03:37:51;100524.33;;;15.95;82.14
77027;BME280;65956;52.986;17.490;2023-08-24T03:40:17;100517.77;;;15.84;82.40
77027;BME280;65956;52.986;17.490;2023-08-24T03:42:43;100525.48;;;15.75;82.58
77027;BME280;65956;52.986;17.490;2023-08-24T03:45:09;100529.89;;;15.73;82.73
77027;BME280;65956;52.986;17.490;2023-08-24T03:47:35;100533.10;;;15.74;82.64
77027;BME280;65956;52.986;17.490;2023-08-24T03:50:01;100533.90;;;15.77;82.59
77027;BME280;65956;52.986;17.490;2023-08-24T03:52:27;100534.30;;;15.80;82.73
77027;BME280;65956;52.986;17.490;2023-08-24T03:54:53;100532.54;;;15.83;82.63
77027;BME280;65956;52.986;17.490;2023-08-24T03:57:19;100534.95;;;15.85;82.65
77027;BME280;65956;52.986;17.490;2023-08-24T03:59:46;100532.85;;;15.88;82.69
77027;BME280;65956;52.986;17.490;2023-08-24T04:02:12;100532.54;;;15.90;82.66
77027;BME280;65956;52.986;17.490;2023-08-24T04:04:38;100536.94;;;15.93;82.55
77027;BME280;65956;52.986;17.490;2023-08-24T04:07:04;100535.27;;;15.96;82.61
77027;BME280;65956;52.986;17.490;2023-08-24T04:09:31;100535.09;;;15.99;82.59
77027;BME280;65956;52.986;17.490;2023-08-24T04:11:57;100538.77;;;16.02;82.73
77027;BME280;65956;52.986;17.490;2023-08-24T04:14:23;100540.39;;;16.06;82.63
77027;BME280;65956;52.986;17.490;2023-08-24T04:16:49;100542.70;;;16.09;82.41
77027;BME280;65956;52.986;17.490;2023-08-24T04:19:15;100545.27;;;16.12;82.48
77027;BME280;65956;52.986;17.490;2023-08-24T04:21:41;100549.67;;;16.14;82.38
77027;BME280;65956;52.986;17.490;2023-08-24T04:24:07;100547.11;;;16.15;82.25
77027;BME280;65956;52.986;17.490;2023-08-24T04:26:33;100555.15;;;16.17;82.27
77027;BME280;65956;52.986;17.490;2023-08-24T04:28:59;100556.04;;;16.17;82.19
77027;BME280;65956;52.986;17.490;2023-08-24T04:31:25;100556.90;;;16.19;82.16
77027;BME280;65956;52.986;17.490;2023-08-24T04:33:51;100552.08;;;16.20;82.12
77027;BME280;65956;52.986;17.490;2023-08-24T04:36:17;100551.52;;;16.21;82.10
77027;BME280;65956;52.986;17.490;2023-08-24T04:38:43;100557.36;;;16.24;82.15
77027;BME280;65956;52.986;17.490;2023-08-24T04:41:09;100556.48;;;16.26;82.23
77027;BME280;65956;52.986;17.490;2023-08-24T04:43:38;100556.80;;;16.28;82.09
77027;BME280;65956;52.986;17.490;2023-08-24T04:46:04;100555.11;;;16.31;82.14
77027;BME280;65956;52.986;17.490;2023-08-24T04:48:30;100559.60;;;16.32;82.01
77027;BME280;65956;52.986;17.490;2023-08-24T04:51:03;100557.52;;;16.33;82.05
77027;BME280;65956;52.986;17.490;2023-08-24T04:53:29;100561.45;;;16.34;81.94
77027;BME280;65956;52.986;17.490;2023-08-24T04:55:55;100555.02;;;16.36;81.97
77027;BME280;65956;52.986;17.490;2023-08-24T04:58:21;100559.74;;;16.41;81.74
77027;BME280;65956;52.986;17.490;2023-08-24T05:00:48;100562.63;;;16.46;81.52
77027;BME280;65956;52.986;17.490;2023-08-24T05:03:14;100560.68;;;16.51;81.48
77027;BME280;65956;52.986;17.490;2023-08-24T05:05:40;100565.51;;;16.55;81.38
77027;BME280;65956;52.986;17.490;2023-08-24T05:08:06;100564.39;;;16.59;81.52
77027;BME280;65956;52.986;17.490;2023-08-24T05:10:36;100567.48;;;16.66;81.49
77027;BME280;65956;52.986;17.490;2023-08-24T05:13:02;100566.42;;;16.72;81.38
77027;BME280;65956;52.986;17.490;2023-08-24T05:15:28;100565.28;;;16.77;81.28
77027;BME280;65956;52.986;17.490;2023-08-24T05:17:54;100561.08;;;16.81;81.20
77027;BME280;65956;52.986;17.490;2023-08-24T05:20:22;100558.23;;;16.89;81.01
77027;BME280;65956;52.986;17.490;2023-08-24T05:22:48;100558.02;;;16.96;81.00
77027;BME280;65956;52.986;17.490;2023-08-24T05:25:15;100558.39;;;17.04;80.73
77027;BME280;65956;52.986;17.490;2023-08-24T05:27:44;100562.12;;;17.14;80.62
77027;BME280;65956;52.986;17.490;2023-08-24T05:30:10;100559.09;;;17.24;80.40
77027;BME280;65956;52.986;17.490;2023-08-24T05:32:36;100561.36;;;17.34;80.31
77027;BME280;65956;52.986;17.490;2023-08-24T05:35:08;100562.09;;;17.44;80.23
77027;BME280;65956;52.986;17.490;2023-08-24T05:37:35;100562.58;;;17.54;79.81
77027;BME280;65956;52.986;17.490;2023-08-24T05:40:01;100561.92;;;17.62;79.56
77027;BME280;65956;52.986;17.490;2023-08-24T05:42:28;100561.94;;;17.69;79.50
77027;BME280;65956;52.986;17.490;2023-08-24T05:44:54;100558.75;;;17.77;78.99
77027;BME280;65956;52.986;17.490;2023-08-24T05:47:20;100557.21;;;17.85;78.54
77027;BME280;65956;52.986;17.490;2023-08-24T05:49:46;100557.69;;;17.96;78.21
77027;BME280;65956;52.986;17.490;2023-08-24T05:52:11;100556.05;;;18.07;77.83
77027;BME280;65956;52.986;17.490;2023-08-24T05:54:38;100555.04;;;18.21;77.46
77027;BME280;65956;52.986;17.490;2023-08-24T05:57:05;100554.83;;;18.31;76.94
77027;BME280;65956;52.986;17.490;2023-08-24T05:59:32;100552.82;;;18.39;76.22
77027;BME280;65956;52.986;17.490;2023-08-24T06:01:58;100550.06;;;18.48;76.22
77027;BME280;65956;52.986;17.490;2023-08-24T06:04:25;100547.63;;;18.59;75.83
77027;BME280;65956;52.986;17.490;2023-08-24T06:06:51;100550.16;;;18.70;75.47
77027;BME280;65956;52.986;17.490;2023-08-24T06:09:18;100554.61;;;18.82;75.26
77027;BME280;65956;52.986;17.490;2023-08-24T06:11:44;100555.54;;;18.97;74.43
77027;BME280;65956;52.986;17.490;2023-08-24T06:14:10;100558.99;;;19.10;73.60
77027;BME280;65956;52.986;17.490;2023-08-24T06:16:36;100556.77;;;19.24;73.12
77027;BME280;65956;52.986;17.490;2023-08-24T06:19:01;100558.08;;;19.35;71.81
77027;BME280;65956;52.986;17.490;2023-08-24T06:21:29;100558.27;;;19.45;71.80
77027;BME280;65956;52.986;17.490;2023-08-24T06:23:55;100559.06;;;19.56;71.92
77027;BME280;65956;52.986;17.490;2023-08-24T06:26:21;100563.45;;;19.71;71.50
77027;BME280;65956;52.986;17.490;2023-08-24T06:28:47;100562.15;;;19.80;70.11
77027;BME280;65956;52.986;17.490;2023-08-24T06:31:14;100563.79;;;19.89;69.89
77027;BME280;65956;52.986;17.490;2023-08-24T06:33:41;100561.98;;;20.00;69.99
77027;BME280;65956;52.986;17.490;2023-08-24T06:36:07;100565.23;;;20.13;69.35
77027;BME280;65956;52.986;17.490;2023-08-24T06:38:33;100565.70;;;20.22;68.72
77027;BME280;65956;52.986;17.490;2023-08-24T06:41:00;100565.98;;;20.30;69.40
77027;BME280;65956;52.986;17.490;2023-08-24T06:43:27;100554.88;;;20.44;69.29
77027;BME280;65956;52.986;17.490;2023-08-24T06:45:56;100558.73;;;20.61;68.49
77027;BME280;65956;52.986;17.490;2023-08-24T06:48:22;100560.88;;;20.81;67.61
77027;BME280;65956;52.986;17.490;2023-08-24T06:50:49;100556.73;;;20.97;65.88
77027;BME280;65956;52.986;17.490;2023-08-24T06:53:15;100559.27;;;21.06;65.72
77027;BME280;65956;52.986;17.490;2023-08-24T06:55:41;100564.13;;;21.15;65.32
77027;BME280;65956;52.986;17.490;2023-08-24T06:58:07;100565.48;;;21.19;65.37
77027;BME280;65956;52.986;17.490;2023-08-24T07:00:33;100560.55;;;21.23;65.62
77027;BME280;65956;52.986;17.490;2023-08-24T07:03:02;100557.90;;;21.26;64.50
77027;BME280;65956;52.986;17.490;2023-08-24T07:05:28;100559.63;;;21.21;63.92
77027;BME280;65956;52.986;17.490;2023-08-24T07:07:54;100560.11;;;21.28;64.10
77027;BME280;65956;52.986;17.490;2023-08-24T07:10:20;100564.67;;;21.37;64.28
77027;BME280;65956;52.986;17.490;2023-08-24T07:12:46;100563.39;;;21.47;64.56
77027;BME280;65956;52.986;17.490;2023-08-24T07:15:13;100557.64;;;21.54;64.09
77027;BME280;65956;52.986;17.490;2023-08-24T07:17:39;100558.38;;;21.57;61.65
77027;BME280;65956;52.986;17.490;2023-08-24T07:20:06;100561.52;;;21.61;61.56
77027;BME280;65956;52.986;17.490;2023-08-24T07:22:34;100555.52;;;21.75;60.72
77027;BME280;65956;52.986;17.490;2023-08-24T07:25:01;100559.00;;;21.81;56.67
77027;BME280;65956;52.986;17.490;2023-08-24T07:27:34;100566.44;;;21.79;56.82
77027;BME280;65956;52.986;17.490;2023-08-24T07:30:02;100571.74;;;21.77;57.64
77027;BME280;65956;52.986;17.490;2023-08-24T07:32:32;100571.91;;;21.80;58.55
77027;BME280;65956;52.986;17.490;2023-08-24T07:34:58;100573.67;;;21.91;59.61
77027;BME280;65956;52.986;17.490;2023-08-24T07:37:26;100571.06;;;21.96;56.93
77027;BME280;65956;52.986;17.490;2023-08-24T07:39:52;100578.90;;;21.93;57.66
77027;BME280;65956;52.986;17.490;2023-08-24T07:42:21;100577.64;;;21.96;57.36
77027;BME280;65956;52.986;17.490;2023-08-24T07:44:47;100572.55;;;21.98;57.25
77027;BME280;65956;52.986;17.490;2023-08-24T07:47:14;100574.25;;;22.04;57.61
77027;BME280;65956;52.986;17.490;2023-08-24T07:49:40;100580.92;;;22.13;57.00
77027;BME280;65956;52.986;17.490;2023-08-24T07:52:12;100579.39;;;22.15;55.62
77027;BME280;65956;52.986;17.490;2023-08-24T07:54:39;100577.38;;;22.21;55.36
77027;BME280;65956;52.986;17.490;2023-08-24T07:57:05;100589.04;;;22.37;54.57
77027;BME280;65956;52.986;17.490;2023-08-24T07:59:32;100584.57;;;22.49;54.07
77027;BME280;65956;52.986;17.490;2023-08-24T08:01:58;100587.97;;;22.71;53.75
77027;BME280;65956;52.986;17.490;2023-08-24T08:04:24;100590.55;;;22.94;53.42
77027;BME280;65956;52.986;17.490;2023-08-24T08:06:50;100590.28;;;23.20;51.52
77027;BME280;65956;52.986;17.490;2023-08-24T08:09:16;100594.63;;;23.34;51.45
77027;BME280;65956;52.986;17.490;2023-08-24T08:11:42;100598.80;;;23.45;51.80
77027;BME280;65956;52.986;17.490;2023-08-24T08:14:09;100601.21;;;23.56;51.62
77027;BME280;65956;52.986;17.490;2023-08-24T08:16:35;100595.30;;;23.60;49.40
77027;BME280;65956;52.986;17.490;2023-08-24T08:19:02;100597.71;;;23.56;49.30
77027;BME280;65956;52.986;17.490;2023-08-24T08:21:28;100594.80;;;23.59;49.73
77027;BME280;65956;52.986;17.490;2023-08-24T08:23:55;100598.27;;;23.62;49.26
77027;BME280;65956;52.986;17.490;2023-08-24T08:26:21;100593.43;;;23.58;49.44
77027;BME280;65956;52.986;17.490;2023-08-24T08:28:47;100596.07;;;23.60;50.23
77027;BME280;65956;52.986;17.490;2023-08-24T08:31:13;100594.15;;;23.63;49.73
77027;BME280;65956;52.986;17.490;2023-08-24T08:33:39;100590.42;;;23.68;50.61
77027;BME280;65956;52.986;17.490;2023-08-24T08:36:05;100590.24;;;23.61;49.53
77027;BME280;65956;52.986;17.490;2023-08-24T08:38:31;100592.02;;;23.49;49.72
77027;BME280;65956;52.986;17.490;2023-08-24T08:41:02;100592.88;;;23.47;50.88
77027;BME280;65956;52.986;17.490;2023-08-24T08:43:29;100598.25;;;23.57;49.77
77027;BME280;65956;52.986;17.490;2023-08-24T08:45:56;100600.85;;;23.67;50.45
77027;BME280;65956;52.986;17.490;2023-08-24T08:48:23;100597.94;;;23.72;48.88
77027;BME280;65956;52.986;17.490;2023-08-24T08:50:51;100599.24;;;23.79;48.89
77027;BME280;65956;52.986;17.490;2023-08-24T08:53:21;100597.61;;;23.79;48.81
77027;BME280;65956;52.986;17.490;2023-08-24T08:55:48;100597.83;;;23.80;48.79
77027;BME280;65956;52.986;17.490;2023-08-24T08:58:16;100597.45;;;23.87;48.98
77027;BME280;65956;52.986;17.490;2023-08-24T09:00:42;100597.21;;;23.97;48.90
77027;BME280;65956;52.986;17.490;2023-08-24T09:03:09;100595.81;;;24.09;49.23
77027;BME280;65956;52.986;17.490;2023-08-24T09:05:37;100598.95;;;24.24;49.35
77027;BME280;65956;52.986;17.490;2023-08-24T09:08:05;100598.77;;;24.40;48.03
77027;BME280;65956;52.986;17.490;2023-08-24T09:10:31;100593.27;;;24.50;47.91
77027;BME280;65956;52.986;17.490;2023-08-24T09:12:57;100595.42;;;24.67;47.53
77027;BME280;65956;52.986;17.490;2023-08-24T09:15:24;100592.37;;;24.73;46.81
77027;BME280;65956;52.986;17.490;2023-08-24T09:17:54;100588.02;;;24.87;46.83
77027;BME280;65956;52.986;17.490;2023-08-24T09:20:22;100585.73;;;25.00;46.30
77027;BME280;65956;52.986;17.490;2023-08-24T09:22:48;100580.17;;;25.03;45.78
77027;BME280;65956;52.986;17.490;2023-08-24T09:25:14;100581.71;;;25.06;45.67
77027;BME280;65956;52.986;17.490;2023-08-24T09:27:40;100582.77;;;25.06;46.12
77027;BME280;65956;52.986;17.490;2023-08-24T09:30:07;100580.97;;;25.04;45.63
77027;BME280;65956;52.986;17.490;2023-08-24T09:32:33;100581.23;;;24.91;46.12
77027;BME280;65956;52.986;17.490;2023-08-24T09:35:04;100578.20;;;24.93;45.76
77027;BME280;65956;52.986;17.490;2023-08-24T09:37:34;100576.65;;;24.93;46.20
77027;BME280;65956;52.986;17.490;2023-08-24T09:40:02;100577.46;;;25.06;45.90
77027;BME280;65956;52.986;17.490;2023-08-24T09:42:40;100573.61;;;25.17;45.46
77027;BME280;65956;52.986;17.490;2023-08-24T09:45:11;100572.59;;;25.37;45.45
77027;BME280;65956;52.986;17.490;2023-08-24T09:47:37;100562.08;;;25.68;45.20
77027;BME280;65956;52.986;17.490;2023-08-24T09:50:04;100559.20;;;26.13;45.31
77027;BME280;65956;52.986;17.490;2023-08-24T09:52:33;100559.13;;;26.61;44.74
77027;BME280;65956;52.986;17.490;2023-08-24T09:55:04;100559.11;;;26.98;43.58
77027;BME280;65956;52.986;17.490;2023-08-24T09:57:38;100555.84;;;27.14;42.46
77027;BME280;65956;52.986;17.490;2023-08-24T10:00:06;100560.54;;;27.26;43.20
77027;BME280;65956;52.986;17.490;2023-08-24T10:02:49;100558.92;;;27.36;41.92
77027;BME280;65956;52.986;17.490;2023-08-24T10:05:20;100550.84;;;27.42;41.82
77027;BME280;65956;52.986;17.490;2023-08-24T10:07:56;100553.11;;;27.31;41.24
77027;BME280;65956;52.986;17.490;2023-08-24T10:10:25;100551.89;;;27.22;42.39
77027;BME280;65956;52.986;17.490;2023-08-24T10:13:00;100546.65;;;27.26;41.84
77027;BME280;65956;52.986;17.490;2023-08-24T10:15:29;100540.52;;;27.23;41.96
77027;BME280;65956;52.986;17.490;2023-08-24T10:17:56;100536.83;;;27.15;41.46
77027;BME280;65956;52.986;17.490;2023-08-24T10:20:23;100529.42;;;27.02;41.18
77027;BME280;65956;52.986;17.490;2023-08-24T10:22:50;100531.76;;;26.81;41.59
77027;BME280;65956;52.986;17.490;2023-08-24T10:25:16;100528.20;;;26.66;41.57
77027;BME280;65956;52.986;17.490;2023-08-24T10:27:46;100531.75;;;26.58;42.23
77027;BME280;65956;52.986;17.490;2023-08-24T10:30:17;100527.36;;;26.36;41.67
77027;BME280;65956;52.986;17.490;2023-08-24T10:32:45;100524.72;;;26.26;42.03
77027;BME280;65956;52.986;17.490;2023-08-24T10:35:11;100523.39;;;26.44;41.74
77027;BME280;65956;52.986;17.490;2023-08-24T10:37:44;100515.98;;;26.60;41.83
77027;BME280;65956;52.986;17.490;2023-08-24T10:40:12;100513.26;;;26.87;42.12
77027;BME280;65956;52.986;17.490;2023-08-24T10:42:46;100509.30;;;27.21;42.19
77027;BME280;65956;52.986;17.490;2023-08-24T10:45:13;100505.96;;;27.56;40.44
77027;BME280;65956;52.986;17.490;2023-08-24T10:47:46;100509.08;;;27.70;39.08
77027;BME280;65956;52.986;17.490;2023-08-24T10:50:13;100506.84;;;27.71;38.09
77027;BME280;65956;52.986;17.490;2023-08-24T10:52:43;100504.52;;;27.71;38.44
77027;BME280;65956;52.986;17.490;2023-08-24T10:55:23;100503.90;;;27.89;38.19
77027;BME280;65956;52.986;17.490;2023-08-24T10:57:57;100497.06;;;28.13;37.89
77027;BME280;65956;52.986;17.490;2023-08-24T11:00:27;100493.70;;;28.30;37.46
77027;BME280;65956;52.986;17.490;2023-08-24T11:02:53;100491.63;;;28.22;38.02
77027;BME280;65956;52.986;17.490;2023-08-24T11:05:21;100487.56;;;28.27;36.68
77027;BME280;65956;52.986;17.490;2023-08-24T11:08:00;100491.33;;;28.38;36.20
77027;BME280;65956;52.986;17.490;2023-08-24T11:13:10;100487.09;;;28.95;35.08
77027;BME280;65956;52.986;17.490;2023-08-24T11:15:42;100484.66;;;29.27;35.35
77027;BME280;65956;52.986;17.490;2023-08-24T11:18:28;100485.66;;;29.32;34.98
77027;BME280;65956;52.986;17.490;2023-08-24T11:21:00;100485.18;;;29.09;34.72
77027;BME280;65956;52.986;17.490;2023-08-24T11:23:26;100480.96;;;29.33;34.28
77027;BME280;65956;52.986;17.490;2023-08-24T11:25:54;100475.36;;;29.73;33.66
77027;BME280;65956;52.986;17.490;2023-08-24T11:28:23;100467.98;;;29.91;32.89
77027;BME280;65956;52.986;17.490;2023-08-24T11:30:51;100468.02;;;30.07;33.16
77027;BME280;65956;52.986;17.490;2023-08-24T11:33:30;100465.64;;;30.60;33.31
77027;BME280;65956;52.986;17.490;2023-08-24T11:35:57;100462.52;;;31.15;32.61
77027;BME280;65956;52.986;17.490;2023-08-24T11:38:23;100461.11;;;31.37;31.68
77027;BME280;65956;52.986;17.490;2023-08-24T11:40:50;100458.68;;;31.44;30.80
77027;BME280;65956;52.986;17.490;2023-08-24T11:43:26;100452.27;;;31.41;31.18
77027;BME280;65956;52.986;17.490;2023-08-24T11:45:53;100449.10;;;31.56;30.62
77027;BME280;65956;52.986;17.490;2023-08-24T11:48:24;100450.52;;;31.84;31.16
77027;BME280;65956;52.986;17.490;2023-08-24T11:50:51;100450.13;;;32.24;30.10
77027;BME280;65956;52.986;17.490;2023-08-24T11:53:17;100452.69;;;32.37;30.22
77027;BME280;65956;52.986;17.490;2023-08-24T11:55:43;100447.64;;;32.35;28.88
77027;BME280;65956;52.986;17.490;2023-08-24T11:58:14;100445.30;;;32.13;29.32
77027;BME280;65956;52.986;17.490;2023-08-24T12:00:42;100448.16;;;31.85;29.37
77027;BME280;65956;52.986;17.490;2023-08-24T12:03:09;100455.08;;;31.74;29.64
77027;BME280;65956;52.986;17.490;2023-08-24T12:05:35;100448.83;;;31.81;29.78
77027;BME280;65956;52.986;17.490;2023-08-24T12:08:02;100446.65;;;31.87;29.64
77027;BME280;65956;52.986;17.490;2023-08-24T12:10:28;100442.45;;;31.86;29.31
77027;BME280;65956;52.986;17.490;2023-08-24T12:13:03;100433.77;;;31.94;29.34
77027;BME280;65956;52.986;17.490;2023-08-24T12:15:30;100431.40;;;32.23;29.17
77027;BME280;65956;52.986;17.490;2023-08-24T12:17:56;100433.55;;;32.45;28.95
77027;BME280;65956;52.986;17.490;2023-08-24T12:20:22;100440.88;;;32.35;28.59
77027;BME280;65956;52.986;17.490;2023-08-24T12:22:55;100436.62;;;31.94;29.19
77027;BME280;65956;52.986;17.490;2023-08-24T12:25:22;100434.44;;;32.21;29.02
77027;BME280;65956;52.986;17.490;2023-08-24T12:27:50;100430.10;;;32.02;29.06
77027;BME280;65956;52.986;17.490;2023-08-24T12:30:18;100431.09;;;32.50;29.02
77027;BME280;65956;52.986;17.490;2023-08-24T12:32:46;100428.00;;;33.26;27.88
77027;BME280;65956;52.986;17.490;2023-08-24T12:35:14;100422.92;;;35.02;26.11
77027;BME280;65956;52.986;17.490;2023-08-24T12:37:41;100415.40;;;36.52;24.40
77027;BME280;65956;52.986;17.490;2023-08-24T12:40:07;100414.42;;;35.35;24.23
77027;BME280;65956;52.986;17.490;2023-08-24T12:42:34;100416.75;;;35.32;24.59
77027;BME280;65956;52.986;17.490;2023-08-24T12:45:00;100415.35;;;36.75;23.94
77027;BME280;65956;52.986;17.490;2023-08-24T12:47:26;100415.21;;;37.72;22.49
77027;BME280;65956;52.986;17.490;2023-08-24T12:49:52;100409.55;;;38.54;21.17
77027;BME280;65956;52.986;17.490;2023-08-24T12:52:22;100403.96;;;38.91;20.64